createdAt,value
2019-02-12T00:01:37.245Z,17.73
2019-02-12T00:04:05.780Z,12.87
2019-02-12T00:06:34.267Z,13.50
2019-02-12T00:09:02.809Z,12.63
2019-02-12T00:11:31.301Z,12.50
2019-02-12T00:13:59.809Z,13.40
2019-02-12T00:16:28.351Z,14.60
2019-02-12T00:18:56.818Z,13.40
2019-02-12T00:21:25.266Z,10.80
2019-02-12T00:23:53.730Z,14.73
2019-02-12T00:26:22.186Z,11.43
2019-02-12T00:28:50.662Z,13.33
2019-02-12T00:31:19.125Z,13.03
2019-02-12T00:33:49.611Z,11.30
2019-02-12T00:36:17.850Z,11.90
2019-02-12T00:38:46.316Z,9.93
2019-02-12T00:41:14.875Z,11.13
2019-02-12T00:43:43.322Z,12.83
2019-02-12T00:46:13.782Z,15.97
2019-02-12T00:48:42.099Z,13.40
2019-02-12T00:51:17.533Z,15.37
2019-02-12T00:53:40.781Z,15.03
2019-02-12T00:56:09.287Z,13.10
2019-02-12T00:58:37.859Z,15.73
2019-02-12T01:01:06.479Z,13.80
2019-02-12T01:03:34.943Z,13.57
2019-02-12T01:06:03.461Z,16.60
2019-02-12T01:08:31.964Z,16.70
2019-02-12T01:11:00.450Z,15.87
2019-02-12T01:13:28.883Z,16.43
2019-02-12T01:15:57.408Z,14.07
2019-02-12T01:18:25.939Z,14.90
2019-02-12T01:20:57.372Z,15.53
2019-02-12T01:23:25.885Z,16.57
2019-02-12T01:25:54.409Z,16.07
2019-02-12T01:28:22.834Z,15.03
2019-02-12T01:30:51.289Z,15.73
2019-02-12T01:33:20.918Z,12.83
2019-02-12T01:35:49.507Z,11.83
2019-02-12T01:38:17.961Z,14.30
2019-02-12T01:40:46.440Z,14.47
2019-02-12T01:43:14.892Z,17.57
2019-02-12T01:45:43.385Z,18.47
2019-02-12T01:48:11.865Z,13.80
2019-02-12T01:50:40.366Z,15.73
2019-02-12T01:53:08.833Z,22.40
2019-02-12T01:55:37.296Z,13.93
2019-02-12T01:58:05.715Z,19.27
2019-02-12T02:00:34.343Z,11.93
2019-02-12T02:03:02.797Z,18.60
2019-02-12T02:05:31.266Z,17.57
2019-02-12T02:07:59.798Z,14.30
2019-02-12T02:10:28.262Z,17.07
2019-02-12T02:12:56.731Z,13.77
2019-02-12T02:15:25.215Z,17.10
2019-02-12T02:17:53.754Z,17.37
2019-02-12T02:20:22.210Z,18.00
2019-02-12T02:22:50.644Z,17.53
2019-02-12T02:25:19.073Z,18.07
2019-02-12T02:27:47.568Z,19.10
2019-02-12T02:30:16.257Z,15.07
2019-02-12T02:32:44.882Z,13.70
2019-02-12T02:35:13.331Z,15.40
2019-02-12T02:37:41.885Z,15.87
2019-02-12T02:40:10.744Z,15.00
2019-02-12T02:42:39.220Z,14.83
2019-02-12T02:45:10.191Z,16.17
2019-02-12T02:47:38.645Z,16.47
2019-02-12T02:50:09.225Z,16.13
2019-02-12T02:52:37.728Z,16.47
2019-02-12T02:55:08.036Z,17.13
2019-02-12T02:57:36.571Z,21.40
2019-02-12T03:00:08.311Z,15.53
2019-02-12T03:02:36.794Z,16.20
2019-02-12T03:05:07.264Z,16.40
2019-02-12T03:07:35.816Z,16.40
2019-02-12T03:10:05.368Z,20.57
2019-02-12T03:12:33.804Z,20.90
2019-02-12T03:15:02.223Z,18.20
2019-02-12T03:17:30.672Z,18.80
2019-02-12T03:19:59.071Z,19.17
2019-02-12T03:22:27.501Z,20.10
2019-02-12T03:24:55.911Z,21.73
2019-02-12T03:27:24.348Z,15.57
2019-02-12T03:29:52.834Z,18.87
2019-02-12T03:32:21.285Z,19.73
2019-02-12T03:34:49.758Z,17.60
2019-02-12T03:37:18.171Z,22.00
2019-02-12T03:39:46.615Z,18.80
2019-02-12T03:42:15.044Z,20.33
2019-02-12T03:44:43.473Z,21.67
2019-02-12T03:47:11.901Z,25.77
2019-02-12T03:49:40.335Z,19.97
2019-02-12T03:52:12.855Z,18.30
2019-02-12T03:54:38.991Z,31.20
2019-02-12T03:57:07.707Z,26.00
2019-02-12T03:59:36.180Z,18.87
2019-02-12T04:02:04.702Z,24.13
2019-02-12T04:04:33.277Z,25.73
2019-02-12T04:07:01.722Z,17.97
2019-02-12T04:09:30.197Z,18.00
2019-02-12T04:11:58.642Z,17.47
2019-02-12T04:14:27.139Z,19.13
2019-02-12T04:16:55.538Z,23.90
2019-02-12T04:19:23.983Z,16.80
2019-02-12T04:21:52.432Z,21.47
2019-02-12T04:24:20.894Z,20.90
2019-02-12T04:26:49.325Z,20.90
2019-02-12T04:29:17.775Z,20.40
2019-02-12T04:31:46.178Z,17.87
2019-02-12T04:34:14.603Z,15.80
2019-02-12T04:36:44.817Z,20.70
2019-02-12T04:39:13.252Z,18.17
2019-02-12T04:41:41.663Z,20.47
2019-02-12T04:44:10.088Z,17.43
2019-02-12T04:46:38.484Z,21.57
2019-02-12T04:49:07.023Z,18.80
2019-02-12T04:51:35.425Z,19.23
2019-02-12T04:54:03.868Z,22.27
2019-02-12T04:56:32.304Z,16.87
2019-02-12T04:59:00.728Z,20.37
2019-02-12T05:01:29.171Z,19.07
2019-02-12T05:03:57.602Z,23.43
2019-02-12T05:06:26.067Z,19.57
2019-02-12T05:09:12.104Z,17.50
2019-02-12T05:11:43.381Z,19.47
2019-02-12T05:14:11.878Z,20.67
2019-02-12T05:16:40.409Z,24.67
2019-02-12T05:19:08.866Z,17.27
2019-02-12T05:21:37.311Z,21.17
2019-02-12T05:24:05.796Z,21.43
2019-02-12T05:26:34.224Z,23.67
2019-02-12T05:29:02.703Z,21.87
2019-02-12T05:31:31.221Z,18.30
2019-02-12T05:33:59.699Z,19.23
2019-02-12T05:36:28.136Z,22.00
2019-02-12T05:38:56.615Z,19.80
2019-02-12T05:41:25.053Z,18.20
2019-02-12T05:43:53.536Z,15.90
2019-02-12T05:46:22.014Z,20.17
2019-02-12T05:48:50.488Z,19.70
2019-02-12T05:51:18.932Z,21.90
2019-02-12T05:53:47.390Z,27.73
2019-02-12T05:56:15.857Z,25.03
2019-02-12T05:58:44.337Z,21.33
2019-02-12T06:01:12.769Z,23.20
2019-02-12T06:03:41.226Z,20.77
2019-02-12T06:06:09.668Z,22.50
2019-02-12T06:08:38.112Z,23.20
2019-02-12T06:11:06.573Z,23.87
2019-02-12T06:13:35.046Z,21.63
2019-02-12T06:16:03.486Z,27.47
2019-02-12T06:18:31.949Z,21.00
2019-02-12T06:21:00.394Z,20.70
2019-02-12T06:23:28.841Z,22.17
2019-02-12T06:25:57.285Z,20.00
2019-02-12T06:28:25.765Z,22.63
2019-02-12T06:30:54.202Z,18.80
2019-02-12T06:33:22.735Z,21.13
2019-02-12T06:35:51.216Z,18.87
2019-02-12T06:38:19.699Z,20.37
2019-02-12T06:40:48.134Z,22.23
2019-02-12T06:43:16.605Z,17.77
2019-02-12T06:45:45.069Z,19.23
2019-02-12T06:48:13.559Z,14.73
2019-02-12T06:50:42.059Z,22.07
2019-02-12T06:53:12.481Z,15.93
2019-02-12T06:55:40.762Z,22.20
2019-02-12T06:58:09.204Z,14.83
2019-02-12T07:00:37.705Z,16.67
2019-02-12T07:03:14.481Z,17.63
2019-02-12T07:05:51.935Z,17.37
2019-02-12T07:08:41.508Z,20.17
2019-02-12T07:11:24.515Z,18.57
2019-02-12T07:14:07.711Z,23.33
2019-02-12T07:16:58.836Z,22.03
2019-02-12T07:19:50.684Z,22.43
2019-02-12T07:22:30.894Z,23.13
2019-02-12T07:25:05.082Z,16.50
2019-02-12T07:27:39.661Z,16.90
2019-02-12T07:30:13.995Z,17.37
2019-02-12T07:32:54.583Z,23.23
2019-02-12T07:35:28.950Z,21.57
2019-02-12T07:38:12.523Z,22.17
2019-02-12T07:41:04.664Z,23.97
2019-02-12T07:43:36.163Z,26.00
2019-02-12T07:46:24.314Z,25.83
2019-02-12T07:49:07.971Z,24.23
2019-02-12T07:51:57.800Z,24.67
2019-02-12T07:54:44.146Z,19.47
2019-02-12T07:57:48.743Z,17.90
2019-02-12T08:00:25.971Z,16.30
2019-02-12T08:03:09.531Z,19.47
2019-02-12T08:05:50.194Z,14.90
2019-02-12T08:08:50.636Z,20.17
2019-02-12T08:11:22.098Z,20.73
2019-02-12T08:14:05.797Z,22.10
2019-02-12T08:16:49.452Z,22.40
2019-02-12T08:19:51.418Z,18.77
2019-02-12T08:22:39.283Z,18.70
2019-02-12T08:25:27.165Z,20.03
2019-02-12T08:28:01.417Z,17.43
2019-02-12T08:30:41.658Z,14.87
2019-02-12T08:33:32.789Z,22.90
2019-02-12T08:36:16.323Z,15.17
2019-02-12T08:38:56.995Z,19.87
2019-02-12T08:41:55.884Z,18.50
2019-02-12T08:44:36.273Z,17.00
2019-02-12T08:47:41.487Z,15.37
2019-02-12T08:50:13.011Z,22.73
2019-02-12T08:52:56.627Z,13.37
2019-02-12T08:55:28.135Z,16.47
2019-02-12T08:58:11.725Z,21.47
2019-02-12T09:00:48.535Z,16.83
2019-02-12T09:03:39.541Z,16.97
2019-02-12T09:06:26.132Z,13.33
2019-02-12T09:09:20.140Z,11.30
2019-02-12T09:12:06.758Z,14.63
2019-02-12T09:14:41.479Z,14.57
2019-02-12T09:17:44.910Z,16.33
2019-02-12T09:20:28.006Z,16.67
2019-02-12T09:23:16.036Z,11.63
2019-02-12T09:25:47.564Z,16.70
2019-02-12T09:28:34.257Z,14.47
2019-02-12T09:31:14.217Z,16.43
2019-02-12T09:33:51.428Z,12.80
2019-02-12T09:36:31.547Z,11.47
2019-02-12T09:39:17.794Z,11.47
2019-02-12T09:42:28.123Z,17.33
2019-02-12T09:45:05.552Z,10.57
2019-02-12T09:47:42.835Z,10.40
2019-02-12T09:50:33.856Z,10.53
2019-02-12T09:53:26.259Z,11.03
2019-02-12T09:56:17.332Z,9.03
2019-02-12T09:58:54.863Z,8.70
2019-02-12T10:01:26.353Z,10.20
2019-02-12T10:04:00.630Z,13.10
2019-02-12T10:06:46.526Z,8.37
2019-02-12T10:09:40.842Z,8.63
2019-02-12T10:12:14.874Z,6.30
2019-02-12T10:15:05.627Z,8.80
2019-02-12T10:17:45.809Z,8.30
2019-02-12T10:20:35.382Z,11.00
2019-02-12T10:23:21.762Z,7.80
2019-02-12T10:25:53.215Z,10.03
2019-02-12T10:28:49.174Z,8.50
2019-02-12T10:31:18.150Z,8.40
2019-02-12T10:33:46.582Z,8.33
2019-02-12T10:36:15.155Z,8.83
2019-02-12T10:38:43.554Z,9.20
2019-02-12T10:41:11.964Z,10.30
2019-02-12T10:43:40.339Z,9.23
2019-02-12T10:46:08.783Z,8.33
2019-02-12T10:48:37.169Z,7.57
2019-02-12T10:51:05.596Z,8.53
2019-02-12T10:53:34.142Z,10.43
2019-02-12T10:56:02.580Z,9.00
2019-02-12T10:58:30.987Z,7.90
2019-02-12T11:00:59.389Z,13.73
2019-02-12T11:03:27.790Z,12.50
2019-02-12T11:05:56.205Z,8.83
2019-02-12T11:08:24.759Z,8.67
2019-02-12T11:10:53.226Z,10.43
2019-02-12T11:13:21.620Z,9.13
2019-02-12T11:15:50.038Z,5.97
2019-02-12T11:18:18.435Z,7.10
2019-02-12T11:20:46.839Z,9.73
2019-02-12T11:23:15.244Z,11.70
2019-02-12T11:25:43.656Z,8.83
2019-02-12T11:28:12.055Z,8.30
2019-02-12T11:30:40.519Z,9.60
2019-02-12T11:33:08.919Z,10.10
2019-02-12T11:35:37.352Z,11.53
2019-02-12T11:38:05.744Z,8.13
2019-02-12T11:40:34.840Z,8.37
2019-02-12T11:43:03.272Z,12.73
2019-02-12T11:45:31.765Z,10.77
2019-02-12T11:48:00.251Z,11.80
2019-02-12T11:50:28.700Z,13.27
2019-02-12T11:52:57.119Z,13.37
2019-02-12T11:55:25.576Z,8.87
2019-02-12T11:57:53.997Z,10.50
2019-02-12T12:00:26.822Z,10.27
2019-02-12T12:02:55.231Z,6.67
2019-02-12T12:05:23.667Z,7.73
2019-02-12T12:07:52.081Z,11.77
2019-02-12T12:10:20.497Z,5.53
2019-02-12T12:12:48.920Z,6.50
2019-02-12T12:15:17.432Z,8.03
2019-02-12T12:17:45.865Z,9.87
2019-02-12T12:20:15.271Z,8.97
2019-02-12T12:22:43.707Z,5.70
2019-02-12T12:25:13.178Z,4.83
2019-02-12T12:27:41.657Z,8.20
2019-02-12T12:30:12.118Z,11.83
2019-02-12T12:32:40.511Z,5.33
2019-02-12T12:35:10.570Z,6.83
2019-02-12T12:37:39.031Z,4.07
2019-02-12T12:40:12.392Z,6.20
2019-02-12T12:42:40.858Z,5.27
2019-02-12T12:45:11.932Z,6.03
2019-02-12T12:47:40.446Z,7.47
2019-02-12T12:50:12.765Z,8.93
2019-02-12T12:52:41.163Z,5.20
2019-02-12T12:55:10.243Z,8.20
2019-02-12T12:57:42.073Z,6.83
2019-02-12T13:00:11.751Z,4.73
2019-02-12T13:02:40.150Z,6.67
2019-02-12T13:05:08.918Z,4.37
2019-02-12T13:07:37.311Z,5.83
2019-02-12T13:10:08.792Z,7.53
2019-02-12T13:12:38.917Z,3.87
2019-02-12T13:15:09.976Z,5.27
2019-02-12T13:17:38.383Z,5.40
2019-02-12T13:20:12.107Z,5.20
2019-02-12T13:22:40.597Z,4.37
2019-02-12T13:25:10.259Z,6.87
2019-02-12T13:27:38.675Z,6.97
2019-02-12T13:30:10.192Z,4.70
2019-02-12T13:32:38.647Z,6.37
2019-02-12T13:35:08.484Z,6.50
2019-02-12T13:37:36.908Z,4.27
2019-02-12T13:40:08.458Z,10.33
2019-02-12T13:42:36.877Z,2.83
2019-02-12T13:45:08.697Z,6.07
2019-02-12T13:47:37.161Z,6.00
2019-02-12T13:50:07.504Z,7.23
2019-02-12T13:52:36.536Z,5.43
2019-02-12T13:55:16.888Z,3.37
2019-02-12T13:57:39.847Z,5.60
2019-02-12T14:00:11.322Z,6.47
2019-02-12T14:02:39.837Z,7.30
2019-02-12T14:05:13.572Z,4.67
2019-02-12T14:07:42.067Z,5.70
2019-02-12T14:10:10.546Z,7.80
2019-02-12T14:12:38.990Z,5.60
2019-02-12T14:15:13.281Z,7.33
2019-02-12T14:17:41.675Z,4.20
2019-02-12T14:20:15.030Z,5.07
2019-02-12T14:22:43.513Z,6.27
2019-02-12T14:25:13.247Z,5.83
2019-02-12T14:27:41.726Z,8.03
2019-02-12T14:30:17.942Z,8.10
2019-02-12T14:32:46.447Z,5.00
2019-02-12T14:35:14.912Z,5.00
2019-02-12T14:37:43.355Z,5.17
2019-02-12T14:40:13.954Z,5.30
2019-02-12T14:42:42.456Z,5.20
2019-02-12T14:45:15.358Z,5.30
2019-02-12T14:47:43.872Z,8.17
2019-02-12T14:50:19.238Z,6.00
2019-02-12T14:52:47.682Z,6.63
2019-02-12T14:55:16.147Z,4.47
2019-02-12T14:57:44.566Z,6.23
2019-02-12T15:00:17.528Z,8.33
2019-02-12T15:02:45.931Z,7.00
2019-02-12T15:05:14.463Z,8.70
2019-02-12T15:07:42.884Z,10.37
2019-02-12T15:10:15.016Z,5.73
2019-02-12T15:12:44.307Z,6.13
2019-02-12T15:15:12.860Z,5.37
2019-02-12T15:17:41.270Z,6.73
2019-02-12T15:20:10.799Z,8.87
2019-02-12T15:22:39.219Z,10.37
2019-02-12T15:25:11.936Z,7.03
2019-02-12T15:27:40.486Z,5.30
2019-02-12T15:30:14.642Z,5.83
2019-02-12T15:32:43.127Z,8.23
2019-02-12T15:35:11.974Z,9.93
2019-02-12T15:37:40.395Z,11.17
2019-02-12T15:40:13.898Z,5.90
2019-02-12T15:42:42.347Z,7.03
2019-02-12T15:45:18.857Z,6.07
2019-02-12T15:47:47.270Z,7.43
2019-02-12T15:50:15.694Z,9.90
2019-02-12T15:52:44.148Z,9.17
2019-02-12T15:55:14.107Z,10.73
2019-02-12T15:57:45.558Z,11.63
2019-02-12T16:00:20.822Z,10.97
2019-02-12T16:02:49.364Z,6.73
2019-02-12T16:05:17.761Z,9.03
2019-02-12T16:07:47.432Z,7.50
2019-02-12T16:10:22.511Z,7.53
2019-02-12T16:12:51.653Z,7.33
2019-02-12T16:15:24.720Z,11.13
2019-02-12T16:17:53.119Z,10.87
2019-02-12T16:20:21.529Z,8.33
2019-02-12T16:22:49.980Z,11.13
2019-02-12T16:25:18.390Z,10.20
2019-02-12T16:27:46.827Z,8.37
2019-02-12T16:30:17.172Z,8.70
2019-02-12T16:32:45.615Z,9.90
2019-02-12T16:35:15.700Z,8.07
2019-02-12T16:37:44.402Z,9.43
2019-02-12T16:40:14.143Z,10.07
2019-02-12T16:42:42.577Z,9.83
2019-02-12T16:45:31.232Z,9.07
2019-02-12T16:48:00.243Z,11.63
2019-02-12T16:50:28.783Z,12.20
2019-02-12T16:52:57.226Z,12.17
2019-02-12T16:55:25.635Z,10.77
2019-02-12T16:57:54.077Z,9.73
2019-02-12T17:00:22.466Z,11.17
2019-02-12T17:02:50.911Z,11.57
2019-02-12T17:05:19.319Z,11.63
2019-02-12T17:07:47.824Z,11.03
2019-02-12T17:10:16.396Z,11.30
2019-02-12T17:12:44.822Z,8.87
2019-02-12T17:15:14.262Z,8.83
2019-02-12T17:17:42.672Z,10.33
2019-02-12T17:20:18.976Z,14.27
2019-02-12T17:22:47.374Z,10.50
2019-02-12T17:25:15.836Z,11.30
2019-02-12T17:27:44.244Z,12.13
2019-02-12T17:30:15.132Z,9.53
2019-02-12T17:32:43.549Z,15.13
2019-02-12T17:35:12.058Z,13.37
2019-02-12T17:37:40.471Z,11.63
2019-02-12T17:40:14.496Z,13.70
2019-02-12T17:42:42.898Z,13.50
2019-02-12T17:45:14.051Z,16.53
2019-02-12T17:47:42.453Z,15.90
2019-02-12T17:50:13.107Z,19.80
2019-02-12T17:52:41.510Z,23.77
2019-02-12T17:55:10.812Z,17.53
2019-02-12T17:57:39.300Z,34.33
2019-02-12T18:00:12.398Z,14.33
2019-02-12T18:05:47.969Z,22.70
2019-02-12T18:08:21.894Z,24.03
2019-02-12T18:19:58.015Z,20.43
2019-02-12T18:22:43.175Z,20.43
2019-02-12T18:25:17.515Z,23.57
2019-02-12T18:27:46.006Z,21.43
2019-02-12T18:30:16.468Z,24.27
2019-02-12T18:32:44.903Z,18.70
2019-02-12T18:35:13.460Z,18.27
2019-02-12T18:37:41.928Z,24.63
2019-02-12T18:40:14.661Z,19.77
2019-02-12T18:42:43.204Z,17.90
2019-02-12T18:45:14.238Z,25.93
2019-02-12T18:47:42.673Z,24.97
2019-02-12T18:50:12.223Z,22.80
2019-02-12T18:52:40.737Z,20.87
2019-02-12T18:55:13.937Z,24.20
2019-02-12T18:57:42.376Z,19.30
2019-02-12T19:00:19.792Z,21.83
2019-02-12T19:02:48.224Z,23.40
2019-02-12T19:05:20.832Z,24.57
2019-02-12T19:07:50.861Z,24.23
2019-02-12T19:10:19.706Z,27.27
2019-02-12T19:12:48.177Z,25.90
2019-02-12T19:15:19.276Z,26.77
2019-02-12T19:18:02.495Z,28.10
2019-02-12T19:20:30.990Z,31.47
2019-02-12T19:22:59.436Z,31.27
2019-02-12T19:25:27.904Z,26.57
2019-02-12T19:27:56.399Z,27.43
2019-02-12T19:30:24.872Z,23.80
2019-02-12T19:32:53.313Z,28.70
2019-02-12T19:35:21.796Z,25.23
2019-02-12T19:37:50.244Z,21.87
2019-02-12T19:40:18.729Z,23.27
2019-02-12T19:42:47.225Z,24.10
2019-02-12T19:45:17.324Z,26.50
2019-02-12T19:47:45.745Z,28.43
2019-02-12T19:50:14.203Z,26.57
2019-02-12T19:52:42.640Z,26.77
2019-02-12T19:55:11.538Z,26.57
2019-02-12T19:57:39.987Z,28.57
2019-02-12T20:00:22.441Z,26.50
2019-02-12T20:02:51.403Z,31.67
2019-02-12T20:05:20.017Z,26.10
2019-02-12T20:07:48.564Z,30.13
2019-02-12T20:10:17.032Z,28.83
2019-02-12T20:12:45.467Z,27.67
2019-02-12T20:15:18.912Z,33.37
2019-02-12T20:17:47.327Z,22.73
2019-02-12T20:20:15.839Z,24.50
2019-02-12T20:22:44.272Z,27.13
2019-02-12T20:25:12.717Z,23.47
2019-02-12T20:27:41.148Z,23.13
2019-02-12T20:30:17.856Z,27.63
2019-02-12T20:32:46.251Z,27.23
2019-02-12T20:35:16.642Z,26.07
2019-02-12T20:37:45.087Z,28.43
2019-02-12T20:40:14.403Z,29.40
2019-02-12T20:42:42.928Z,28.03
2019-02-12T20:45:19.159Z,24.97
2019-02-12T20:47:47.574Z,27.83
2019-02-12T20:50:22.958Z,29.90
2019-02-12T20:52:51.375Z,29.73
2019-02-12T20:55:19.872Z,35.73
2019-02-12T20:57:48.350Z,25.53
2019-02-12T21:00:19.034Z,32.87
2019-02-12T21:02:47.516Z,25.13
2019-02-12T21:05:17.536Z,24.03
2019-02-12T21:07:49.060Z,23.20
2019-02-12T21:10:19.115Z,28.37
2019-02-12T21:12:49.102Z,28.27
2019-02-12T21:15:30.928Z,28.13
2019-02-12T21:17:59.327Z,27.20
2019-02-12T21:20:27.834Z,24.57
2019-02-12T21:22:57.909Z,26.83
2019-02-12T21:25:26.446Z,30.70
2019-02-12T21:27:55.360Z,25.37
2019-02-12T21:30:29.752Z,20.40
2019-02-12T21:32:58.180Z,26.53
2019-02-12T21:35:26.658Z,27.10
2019-02-12T21:37:55.094Z,22.30
2019-02-12T21:40:27.150Z,28.60
2019-02-12T21:42:56.136Z,20.27
2019-02-12T21:45:24.530Z,21.77
2019-02-12T21:47:54.502Z,23.47
2019-02-12T21:50:22.896Z,22.47
2019-02-12T21:52:51.374Z,24.67
2019-02-12T21:55:22.703Z,23.87
2019-02-12T21:57:51.138Z,24.07
2019-02-12T22:00:20.695Z,27.03
2019-02-12T22:02:49.131Z,28.43
2019-02-12T22:05:17.975Z,24.67
2019-02-12T22:07:46.590Z,23.73
2019-02-12T22:10:20.224Z,22.83
2019-02-12T22:12:48.684Z,24.27
2019-02-12T22:15:17.247Z,23.73
2019-02-12T22:17:45.748Z,26.33
2019-02-12T22:20:16.223Z,23.53
2019-02-12T22:22:44.687Z,22.47
2019-02-12T22:25:13.175Z,26.10
2019-02-12T22:27:41.692Z,23.83
2019-02-12T22:30:31.293Z,29.13
2019-02-12T22:32:59.740Z,24.00
2019-02-12T22:35:28.167Z,23.67
2019-02-12T22:37:58.175Z,22.20
2019-02-12T22:40:26.862Z,25.03
2019-02-12T22:42:55.381Z,20.77
2019-02-12T22:45:24.818Z,24.67
2019-02-12T22:47:53.335Z,20.23
2019-02-12T22:50:23.286Z,25.83
2019-02-12T22:52:51.906Z,21.10
2019-02-12T22:55:20.380Z,22.20
2019-02-12T22:57:49.745Z,19.87
2019-02-12T23:03:26.284Z,22.80
2019-02-12T23:05:54.978Z,17.87
2019-02-12T23:08:23.520Z,21.83
2019-02-12T23:10:51.996Z,21.73
2019-02-12T23:13:20.522Z,20.03
2019-02-12T23:15:48.974Z,22.13
2019-02-12T23:18:17.480Z,18.97
2019-02-12T23:20:45.982Z,22.43
2019-02-12T23:23:14.548Z,19.10
2019-02-12T23:25:45.992Z,19.67
2019-02-12T23:28:14.445Z,19.00
2019-02-12T23:30:42.899Z,20.80
2019-02-12T23:33:11.405Z,22.37
2019-02-12T23:35:39.897Z,21.43
2019-02-12T23:38:08.346Z,24.60
2019-02-12T23:40:39.611Z,23.17
2019-02-12T23:43:08.067Z,22.07
2019-02-12T23:45:36.494Z,22.87
2019-02-12T23:48:04.961Z,21.50
2019-02-12T23:50:33.424Z,19.07
2019-02-12T23:53:02.942Z,26.03
2019-02-12T23:55:33.512Z,18.17
2019-02-12T23:58:06.031Z,20.27
